sensor_id;sensor_type;location;lat;lon;timestamp;temperature;humidity
21616;DHT22;10970;48.714;9.584;2023-04-06T00:01:31;0.40;99.90
21616;DHT22;10970;48.714;9.584;2023-04-06T00:03:56;0.40;99.90
21616;DHT22;10970;48.714;9.584;2023-04-06T00:06:23;0.30;99.90
21616;DHT22;10970;48.714;9.584;2023-04-06T00:08:49;0.30;99.90
21616;DHT22;10970;48.714;9.584;2023-04-06T00:11:15;0.20;99.90
21616;DHT22;10970;48.714;9.584;2023-04-06T00:13:42;0.20;99.90
21616;DHT22;10970;48.714;9.584;2023-04-06T00:16:08;0.20;99.90
21616;DHT22;10970;48.714;9.584;2023-04-06T00:18:34;0.20;99.90
21616;DHT22;10970;48.714;9.584;2023-04-06T00:20:59;0.10;99.90
21616;DHT22;10970;48.714;9.584;2023-04-06T00:23:25;0.10;99.90
21616;DHT22;10970;48.714;9.584;2023-04-06T00:25:51;0.10;99.90
21616;DHT22;10970;48.714;9.584;2023-04-06T00:28:17;0.00;99.90
21616;DHT22;10970;48.714;9.584;2023-04-06T00:30:42;0.00;99.90
21616;DHT22;10970;48.714;9.584;2023-04-06T00:33:08;0.00;99.90
21616;DHT22;10970;48.714;9.584;2023-04-06T00:35:34;0.00;99.90
21616;DHT22;10970;48.714;9.584;2023-04-06T00:38:00;0.00;99.90
21616;DHT22;10970;48.714;9.584;2023-04-06T00:40:26;0.00;99.90
21616;DHT22;10970;48.714;9.584;2023-04-06T00:42:54;-0.10;99.90
21616;DHT22;10970;48.714;9.584;2023-04-06T00:45:20;-0.10;99.90
21616;DHT22;10970;48.714;9.584;2023-04-06T00:47:45;-0.10;99.90
21616;DHT22;10970;48.714;9.584;2023-04-06T00:50:11;-0.10;99.90
21616;DHT22;10970;48.714;9.584;2023-04-06T00:52:37;-0.10;99.90
21616;DHT22;10970;48.714;9.584;2023-04-06T00:55:03;-0.10;99.90
21616;DHT22;10970;48.714;9.584;2023-04-06T00:57:29;-0.10;99.90
21616;DHT22;10970;48.714;9.584;2023-04-06T00:59:56;-0.20;99.90
21616;DHT22;10970;48.714;9.584;2023-04-06T01:02:21;-0.20;99.90
21616;DHT22;10970;48.714;9.584;2023-04-06T01:04:48;-0.20;99.90
21616;DHT22;10970;48.714;9.584;2023-04-06T01:07:14;-0.20;99.90
21616;DHT22;10970;48.714;9.584;2023-04-06T01:09:39;-0.20;99.90
21616;DHT22;10970;48.714;9.584;2023-04-06T01:12:07;-0.30;99.90
21616;DHT22;10970;48.714;9.584;2023-04-06T01:14:33;-0.30;99.90
21616;DHT22;10970;48.714;9.584;2023-04-06T01:17:00;-0.30;99.90
21616;DHT22;10970;48.714;9.584;2023-04-06T01:19:26;-0.30;99.90
21616;DHT22;10970;48.714;9.584;2023-04-06T01:21:51;-0.30;99.90
21616;DHT22;10970;48.714;9.584;2023-04-06T01:24:19;-0.40;99.90
21616;DHT22;10970;48.714;9.584;2023-04-06T01:26:45;-0.40;99.90
21616;DHT22;10970;48.714;9.584;2023-04-06T01:29:11;-0.50;99.90
21616;DHT22;10970;48.714;9.584;2023-04-06T01:31:37;-0.50;99.90
21616;DHT22;10970;48.714;9.584;2023-04-06T01:34:03;-0.50;99.90
21616;DHT22;10970;48.714;9.584;2023-04-06T01:36:28;-0.60;99.90
21616;DHT22;10970;48.714;9.584;2023-04-06T01:38:54;-0.60;99.90
21616;DHT22;10970;48.714;9.584;2023-04-06T01:41:20;-0.60;99.90
21616;DHT22;10970;48.714;9.584;2023-04-06T01:43:47;-0.60;99.90
21616;DHT22;10970;48.714;9.584;2023-04-06T01:46:13;-0.60;99.90
21616;DHT22;10970;48.714;9.584;2023-04-06T01:48:39;-0.60;99.90
21616;DHT22;10970;48.714;9.584;2023-04-06T01:51:05;-0.60;99.90
21616;DHT22;10970;48.714;9.584;2023-04-06T01:53:30;-0.70;99.90
21616;DHT22;10970;48.714;9.584;2023-04-06T01:55:56;-0.70;99.90
21616;DHT22;10970;48.714;9.584;2023-04-06T01:58:22;-0.70;99.90
21616;DHT22;10970;48.714;9.584;2023-04-06T02:00:47;-0.70;99.90
21616;DHT22;10970;48.714;9.584;2023-04-06T02:03:13;-0.70;99.90
21616;DHT22;10970;48.714;9.584;2023-04-06T02:05:40;-0.70;99.90
21616;DHT22;10970;48.714;9.584;2023-04-06T02:08:06;-0.70;99.90
21616;DHT22;10970;48.714;9.584;2023-04-06T02:10:35;-0.70;99.90
21616;DHT22;10970;48.714;9.584;2023-04-06T02:13:01;-0.70;99.90
21616;DHT22;10970;48.714;9.584;2023-04-06T02:15:27;-0.80;99.90
21616;DHT22;10970;48.714;9.584;2023-04-06T02:17:53;-0.80;99.90
21616;DHT22;10970;48.714;9.584;2023-04-06T02:20:19;-0.80;99.90
21616;DHT22;10970;48.714;9.584;2023-04-06T02:22:45;-0.70;99.90
21616;DHT22;10970;48.714;9.584;2023-04-06T02:25:10;-0.80;99.90
21616;DHT22;10970;48.714;9.584;2023-04-06T02:27:37;-0.80;99.90
21616;DHT22;10970;48.714;9.584;2023-04-06T02:30:03;-0.80;99.90
21616;DHT22;10970;48.714;9.584;2023-04-06T02:32:29;-0.80;99.90
21616;DHT22;10970;48.714;9.584;2023-04-06T02:34:55;-0.80;99.90
21616;DHT22;10970;48.714;9.584;2023-04-06T02:37:21;-0.80;99.90
21616;DHT22;10970;48.714;9.584;2023-04-06T02:39:48;-0.80;99.90
21616;DHT22;10970;48.714;9.584;2023-04-06T02:42:14;-0.80;99.90
21616;DHT22;10970;48.714;9.584;2023-04-06T02:44:41;-0.90;99.90
21616;DHT22;10970;48.714;9.584;2023-04-06T02:47:07;-0.90;99.90
21616;DHT22;10970;48.714;9.584;2023-04-06T02:49:33;-0.90;99.90
21616;DHT22;10970;48.714;9.584;2023-04-06T02:51:59;-1.00;99.90
21616;DHT22;10970;48.714;9.584;2023-04-06T02:54:25;-1.00;99.90
21616;DHT22;10970;48.714;9.584;2023-04-06T02:56:51;-1.10;99.90
21616;DHT22;10970;48.714;9.584;2023-04-06T02:59:16;-1.10;99.90
21616;DHT22;10970;48.714;9.584;2023-04-06T03:01:42;-1.10;99.90
21616;DHT22;10970;48.714;9.584;2023-04-06T03:04:08;-1.20;99.90
21616;DHT22;10970;48.714;9.584;2023-04-06T03:06:33;-1.20;99.90
21616;DHT22;10970;48.714;9.584;2023-04-06T03:08:59;-1.20;99.90
21616;DHT22;10970;48.714;9.584;2023-04-06T03:11:25;-1.30;99.90
21616;DHT22;10970;48.714;9.584;2023-04-06T03:13:52;-1.20;99.90
21616;DHT22;10970;48.714;9.584;2023-04-06T03:16:17;-1.20;99.90
21616;DHT22;10970;48.714;9.584;2023-04-06T03:18:43;-1.20;99.90
21616;DHT22;10970;48.714;9.584;2023-04-06T03:21:10;-1.20;99.90
21616;DHT22;10970;48.714;9.584;2023-04-06T03:23:36;-1.30;99.90
21616;DHT22;10970;48.714;9.584;2023-04-06T03:26:02;-1.40;99.90
21616;DHT22;10970;48.714;9.584;2023-04-06T03:28:28;-1.30;99.90
21616;DHT22;10970;48.714;9.584;2023-04-06T03:30:54;-1.40;99.90
21616;DHT22;10970;48.714;9.584;2023-04-06T03:33:20;-1.30;99.90
21616;DHT22;10970;48.714;9.584;2023-04-06T03:35:45;-1.40;99.90
21616;DHT22;10970;48.714;9.584;2023-04-06T03:38:11;-1.50;99.90
21616;DHT22;10970;48.714;9.584;2023-04-06T03:40:36;-1.50;99.90
21616;DHT22;10970;48.714;9.584;2023-04-06T03:43:03;-1.60;99.90
21616;DHT22;10970;48.714;9.584;2023-04-06T03:45:29;-1.60;99.90
21616;DHT22;10970;48.714;9.584;2023-04-06T03:47:54;-1.60;99.90
21616;DHT22;10970;48.714;9.584;2023-04-06T03:50:20;-1.60;99.90
21616;DHT22;10970;48.714;9.584;2023-04-06T03:52:46;-1.50;99.90
21616;DHT22;10970;48.714;9.584;2023-04-06T03:55:11;-1.50;99.90
21616;DHT22;10970;48.714;9.584;2023-04-06T03:57:37;-1.50;99.90
21616;DHT22;10970;48.714;9.584;2023-04-06T04:00:03;-1.50;99.90
21616;DHT22;10970;48.714;9.584;2023-04-06T04:02:29;-1.50;99.90
21616;DHT22;10970;48.714;9.584;2023-04-06T04:04:55;-1.60;99.90
21616;DHT22;10970;48.714;9.584;2023-04-06T04:07:20;-1.70;99.90
21616;DHT22;10970;48.714;9.584;2023-04-06T04:09:46;-1.70;99.90
21616;DHT22;10970;48.714;9.584;2023-04-06T04:12:12;-1.70;99.90
21616;DHT22;10970;48.714;9.584;2023-04-06T04:14:39;-1.70;99.90
21616;DHT22;10970;48.714;9.584;2023-04-06T04:17:05;-1.70;99.90
21616;DHT22;10970;48.714;9.584;2023-04-06T04:19:31;-1.70;99.90
21616;DHT22;10970;48.714;9.584;2023-04-06T04:21:56;-1.70;99.90
21616;DHT22;10970;48.714;9.584;2023-04-06T04:24:22;-1.80;99.90
21616;DHT22;10970;48.714;9.584;2023-04-06T04:26:48;-1.80;99.90
21616;DHT22;10970;48.714;9.584;2023-04-06T04:29:13;-1.70;99.90
21616;DHT22;10970;48.714;9.584;2023-04-06T04:31:39;-1.80;99.90
21616;DHT22;10970;48.714;9.584;2023-04-06T04:34:05;-1.80;99.90
21616;DHT22;10970;48.714;9.584;2023-04-06T04:36:32;-1.80;99.90
21616;DHT22;10970;48.714;9.584;2023-04-06T04:38:57;-1.80;99.90
21616;DHT22;10970;48.714;9.584;2023-04-06T04:41:24;-1.80;99.90
21616;DHT22;10970;48.714;9.584;2023-04-06T04:43:49;-1.80;99.90
21616;DHT22;10970;48.714;9.584;2023-04-06T04:46:15;-1.80;99.90
21616;DHT22;10970;48.714;9.584;2023-04-06T04:48:41;-1.90;99.90
21616;DHT22;10970;48.714;9.584;2023-04-06T04:51:06;-1.90;99.90
21616;DHT22;10970;48.714;9.584;2023-04-06T04:53:32;-1.90;99.90
21616;DHT22;10970;48.714;9.584;2023-04-06T04:55:58;-1.90;99.90
21616;DHT22;10970;48.714;9.584;2023-04-06T04:58:23;-1.90;99.90
21616;DHT22;10970;48.714;9.584;2023-04-06T05:00:49;-1.90;99.90
21616;DHT22;10970;48.714;9.584;2023-04-06T05:03:25;-1.90;99.90
21616;DHT22;10970;48.714;9.584;2023-04-06T05:05:51;-1.90;99.90
21616;DHT22;10970;48.714;9.584;2023-04-06T05:08:17;-1.80;99.90
21616;DHT22;10970;48.714;9.584;2023-04-06T05:10:43;-1.80;99.90
21616;DHT22;10970;48.714;9.584;2023-04-06T05:13:09;-1.80;99.90
21616;DHT22;10970;48.714;9.584;2023-04-06T05:15:35;-1.70;99.90
21616;DHT22;10970;48.714;9.584;2023-04-06T05:18:04;-1.70;99.90
21616;DHT22;10970;48.714;9.584;2023-04-06T05:20:29;-1.70;99.90
21616;DHT22;10970;48.714;9.584;2023-04-06T05:22:56;-1.60;99.90
21616;DHT22;10970;48.714;9.584;2023-04-06T05:25:21;-1.60;99.90
21616;DHT22;10970;48.714;9.584;2023-04-06T05:27:47;-1.60;99.90
21616;DHT22;10970;48.714;9.584;2023-04-06T05:30:13;-1.60;99.90
21616;DHT22;10970;48.714;9.584;2023-04-06T05:32:40;-1.60;99.90
21616;DHT22;10970;48.714;9.584;2023-04-06T05:35:06;-1.50;99.90
21616;DHT22;10970;48.714;9.584;2023-04-06T05:37:31;-1.40;99.90
21616;DHT22;10970;48.714;9.584;2023-04-06T05:39:57;-1.40;99.90
21616;DHT22;10970;48.714;9.584;2023-04-06T05:42:23;-1.40;99.90
21616;DHT22;10970;48.714;9.584;2023-04-06T05:44:49;-1.40;99.90
21616;DHT22;10970;48.714;9.584;2023-04-06T05:47:14;-1.40;99.90
21616;DHT22;10970;48.714;9.584;2023-04-06T05:49:42;-1.30;99.90
21616;DHT22;10970;48.714;9.584;2023-04-06T05:52:08;-1.30;99.90
21616;DHT22;10970;48.714;9.584;2023-04-06T05:54:35;-1.30;99.90
21616;DHT22;10970;48.714;9.584;2023-04-06T05:57:04;-1.30;99.90
21616;DHT22;10970;48.714;9.584;2023-04-06T05:59:30;-1.20;99.90
21616;DHT22;10970;48.714;9.584;2023-04-06T06:01:57;-1.10;99.90
21616;DHT22;10970;48.714;9.584;2023-04-06T06:04:22;-1.00;99.90
21616;DHT22;10970;48.714;9.584;2023-04-06T06:06:48;-0.90;99.90
21616;DHT22;10970;48.714;9.584;2023-04-06T06:09:14;-0.70;99.90
21616;DHT22;10970;48.714;9.584;2023-04-06T06:11:40;-0.30;99.90
21616;DHT22;10970;48.714;9.584;2023-04-06T06:14:06;0.60;99.90
21616;DHT22;10970;48.714;9.584;2023-04-06T06:16:32;1.70;99.90
21616;DHT22;10970;48.714;9.584;2023-04-06T06:18:58;2.20;99.90
21616;DHT22;10970;48.714;9.584;2023-04-06T06:21:23;2.10;99.90
21616;DHT22;10970;48.714;9.584;2023-04-06T06:23:50;2.20;99.90
21616;DHT22;10970;48.714;9.584;2023-04-06T06:26:16;2.40;99.90
21616;DHT22;10970;48.714;9.584;2023-04-06T06:28:42;2.80;99.90
21616;DHT22;10970;48.714;9.584;2023-04-06T06:31:07;2.90;99.90
21616;DHT22;10970;48.714;9.584;2023-04-06T06:33:33;3.20;99.90
21616;DHT22;10970;48.714;9.584;2023-04-06T06:35:59;3.40;99.90
21616;DHT22;10970;48.714;9.584;2023-04-06T06:38:25;3.90;99.90
21616;DHT22;10970;48.714;9.584;2023-04-06T06:40:50;4.10;99.90
21616;DHT22;10970;48.714;9.584;2023-04-06T06:43:16;4.40;99.90
21616;DHT22;10970;48.714;9.584;2023-04-06T06:45:42;4.50;99.90
21616;DHT22;10970;48.714;9.584;2023-04-06T06:48:08;4.80;99.90
21616;DHT22;10970;48.714;9.584;2023-04-06T06:50:33;5.00;99.90
21616;DHT22;10970;48.714;9.584;2023-04-06T06:52:59;4.80;99.90
21616;DHT22;10970;48.714;9.584;2023-04-06T06:55:25;4.70;99.90
21616;DHT22;10970;48.714;9.584;2023-04-06T06:57:52;4.80;99.90
21616;DHT22;10970;48.714;9.584;2023-04-06T07:00:18;4.90;99.90
21616;DHT22;10970;48.714;9.584;2023-04-06T07:02:46;5.10;99.90
21616;DHT22;10970;48.714;9.584;2023-04-06T07:05:13;5.10;99.90
21616;DHT22;10970;48.714;9.584;2023-04-06T07:07:38;5.30;99.90
21616;DHT22;10970;48.714;9.584;2023-04-06T07:10:05;5.40;99.90
21616;DHT22;10970;48.714;9.584;2023-04-06T07:12:31;5.60;99.90
21616;DHT22;10970;48.714;9.584;2023-04-06T07:14:56;5.20;99.90
21616;DHT22;10970;48.714;9.584;2023-04-06T07:17:22;5.30;99.90
21616;DHT22;10970;48.714;9.584;2023-04-06T07:19:48;5.60;99.90
21616;DHT22;10970;48.714;9.584;2023-04-06T07:22:13;5.80;99.90
21616;DHT22;10970;48.714;9.584;2023-04-06T07:24:39;6.00;99.90
21616;DHT22;10970;48.714;9.584;2023-04-06T07:27:05;5.60;99.90
21616;DHT22;10970;48.714;9.584;2023-04-06T07:29:31;5.60;99.90
21616;DHT22;10970;48.714;9.584;2023-04-06T07:31:57;5.70;99.90
21616;DHT22;10970;48.714;9.584;2023-04-06T07:34:22;5.90;99.90
21616;DHT22;10970;48.714;9.584;2023-04-06T07:36:48;6.00;99.90
21616;DHT22;10970;48.714;9.584;2023-04-06T07:39:14;6.30;99.90
21616;DHT22;10970;48.714;9.584;2023-04-06T07:41:40;6.30;99.90
21616;DHT22;10970;48.714;9.584;2023-04-06T07:44:06;6.40;99.90
21616;DHT22;10970;48.714;9.584;2023-04-06T07:46:31;6.40;99.90
21616;DHT22;10970;48.714;9.584;2023-04-06T07:48:59;6.40;99.90
21616;DHT22;10970;48.714;9.584;2023-04-06T07:51:25;6.70;99.90
21616;DHT22;10970;48.714;9.584;2023-04-06T07:53:51;6.70;99.90
21616;DHT22;10970;48.714;9.584;2023-04-06T07:56:17;7.00;99.90
21616;DHT22;10970;48.714;9.584;2023-04-06T07:58:43;7.30;99.90
21616;DHT22;10970;48.714;9.584;2023-04-06T08:01:09;7.50;99.90
21616;DHT22;10970;48.714;9.584;2023-04-06T08:03:35;7.50;99.90
21616;DHT22;10970;48.714;9.584;2023-04-06T08:06:02;7.80;99.90
21616;DHT22;10970;48.714;9.584;2023-04-06T08:08:28;8.10;99.90
21616;DHT22;10970;48.714;9.584;2023-04-06T08:10:54;8.10;99.90
21616;DHT22;10970;48.714;9.584;2023-04-06T08:13:19;8.30;99.90
21616;DHT22;10970;48.714;9.584;2023-04-06T08:15:46;8.60;99.90
21616;DHT22;10970;48.714;9.584;2023-04-06T08:18:12;8.70;99.90
21616;DHT22;10970;48.714;9.584;2023-04-06T08:20:38;9.10;99.90
21616;DHT22;10970;48.714;9.584;2023-04-06T08:23:04;9.20;99.90
21616;DHT22;10970;48.714;9.584;2023-04-06T08:25:30;9.10;99.90
21616;DHT22;10970;48.714;9.584;2023-04-06T08:27:56;9.20;99.90
21616;DHT22;10970;48.714;9.584;2023-04-06T08:30:21;9.30;99.90
21616;DHT22;10970;48.714;9.584;2023-04-06T08:32:47;9.60;99.90
21616;DHT22;10970;48.714;9.584;2023-04-06T08:35:13;9.70;99.90
21616;DHT22;10970;48.714;9.584;2023-04-06T08:37:39;9.80;99.90
21616;DHT22;10970;48.714;9.584;2023-04-06T08:40:05;9.70;99.90
21616;DHT22;10970;48.714;9.584;2023-04-06T08:42:44;9.80;99.90
21616;DHT22;10970;48.714;9.584;2023-04-06T08:45:10;9.80;99.90
21616;DHT22;10970;48.714;9.584;2023-04-06T08:47:36;9.50;99.90
21616;DHT22;10970;48.714;9.584;2023-04-06T08:50:06;9.60;99.90
21616;DHT22;10970;48.714;9.584;2023-04-06T08:52:33;9.90;99.90
21616;DHT22;10970;48.714;9.584;2023-04-06T08:55:00;9.90;99.90
21616;DHT22;10970;48.714;9.584;2023-04-06T08:57:26;9.90;99.90
21616;DHT22;10970;48.714;9.584;2023-04-06T08:59:52;9.60;99.90
21616;DHT22;10970;48.714;9.584;2023-04-06T09:02:20;9.60;99.90
21616;DHT22;10970;48.714;9.584;2023-04-06T09:04:48;9.50;99.90
21616;DHT22;10970;48.714;9.584;2023-04-06T09:07:15;9.60;99.90
21616;DHT22;10970;48.714;9.584;2023-04-06T09:09:41;9.60;99.90
21616;DHT22;10970;48.714;9.584;2023-04-06T09:12:26;9.70;99.90
21616;DHT22;10970;48.714;9.584;2023-04-06T09:14:53;9.60;99.90
21616;DHT22;10970;48.714;9.584;2023-04-06T09:17:32;9.70;99.90
21616;DHT22;10970;48.714;9.584;2023-04-06T09:20:00;9.80;99.90
21616;DHT22;10970;48.714;9.584;2023-04-06T09:22:38;9.80;99.90
21616;DHT22;10970;48.714;9.584;2023-04-06T09:25:19;9.80;99.90
21616;DHT22;10970;48.714;9.584;2023-04-06T09:27:46;9.90;99.90
21616;DHT22;10970;48.714;9.584;2023-04-06T09:30:12;9.70;99.90
21616;DHT22;10970;48.714;9.584;2023-04-06T09:32:49;9.60;99.90
21616;DHT22;10970;48.714;9.584;2023-04-06T09:35:16;9.60;99.90
21616;DHT22;10970;48.714;9.584;2023-04-06T09:37:44;9.80;99.90
21616;DHT22;10970;48.714;9.584;2023-04-06T09:40:11;9.80;99.90
21616;DHT22;10970;48.714;9.584;2023-04-06T09:42:37;9.90;99.90
21616;DHT22;10970;48.714;9.584;2023-04-06T09:45:03;10.10;99.90
21616;DHT22;10970;48.714;9.584;2023-04-06T09:47:30;10.00;99.90
21616;DHT22;10970;48.714;9.584;2023-04-06T09:50:00;10.00;99.90
21616;DHT22;10970;48.714;9.584;2023-04-06T09:52:33;10.10;99.90
21616;DHT22;10970;48.714;9.584;2023-04-06T09:55:04;10.00;99.90
21616;DHT22;10970;48.714;9.584;2023-04-06T09:57:49;10.20;99.90
21616;DHT22;10970;48.714;9.584;2023-04-06T10:00:20;10.10;99.90
21616;DHT22;10970;48.714;9.584;2023-04-06T10:03:14;10.40;99.90
21616;DHT22;10970;48.714;9.584;2023-04-06T10:05:49;10.40;99.90
21616;DHT22;10970;48.714;9.584;2023-04-06T10:08:16;10.30;99.90
21616;DHT22;10970;48.714;9.584;2023-04-06T10:10:43;10.40;99.90
21616;DHT22;10970;48.714;9.584;2023-04-06T10:13:11;10.30;99.90
21616;DHT22;10970;48.714;9.584;2023-04-06T10:15:38;10.30;99.90
21616;DHT22;10970;48.714;9.584;2023-04-06T10:18:06;10.40;99.90
21616;DHT22;10970;48.714;9.584;2023-04-06T10:21:00;10.40;99.90
21616;DHT22;10970;48.714;9.584;2023-04-06T10:26:01;10.30;99.90
21616;DHT22;10970;48.714;9.584;2023-04-06T10:28:32;10.20;99.90
21616;DHT22;10970;48.714;9.584;2023-04-06T10:31:00;10.30;99.90
21616;DHT22;10970;48.714;9.584;2023-04-06T10:33:27;10.20;99.90
21616;DHT22;10970;48.714;9.584;2023-04-06T10:35:53;10.30;99.90
21616;DHT22;10970;48.714;9.584;2023-04-06T10:38:21;10.20;99.90
21616;DHT22;10970;48.714;9.584;2023-04-06T10:41:04;10.40;99.90
21616;DHT22;10970;48.714;9.584;2023-04-06T10:43:33;10.70;99.90
21616;DHT22;10970;48.714;9.584;2023-04-06T10:46:04;10.70;99.90
21616;DHT22;10970;48.714;9.584;2023-04-06T10:51:17;10.90;99.90
21616;DHT22;10970;48.714;9.584;2023-04-06T10:53:47;11.00;99.90
21616;DHT22;10970;48.714;9.584;2023-04-06T10:56:16;11.20;99.90
21616;DHT22;10970;48.714;9.584;2023-04-06T10:58:46;11.30;99.90
21616;DHT22;10970;48.714;9.584;2023-04-06T11:01:18;11.30;99.90
21616;DHT22;10970;48.714;9.584;2023-04-06T11:03:49;11.50;99.90
21616;DHT22;10970;48.714;9.584;2023-04-06T11:06:22;11.60;99.90
21616;DHT22;10970;48.714;9.584;2023-04-06T11:08:49;11.30;99.90
21616;DHT22;10970;48.714;9.584;2023-04-06T11:11:17;11.20;99.90
21616;DHT22;10970;48.714;9.584;2023-04-06T11:13:49;11.30;99.90
21616;DHT22;10970;48.714;9.584;2023-04-06T11:16:23;11.50;99.90
21616;DHT22;10970;48.714;9.584;2023-04-06T11:18:55;11.50;99.90
21616;DHT22;10970;48.714;9.584;2023-04-06T11:21:37;11.50;99.90
21616;DHT22;10970;48.714;9.584;2023-04-06T11:26:58;11.50;99.90
21616;DHT22;10970;48.714;9.584;2023-04-06T11:29:28;11.40;99.90
21616;DHT22;10970;48.714;9.584;2023-04-06T11:31:59;11.40;99.90
21616;DHT22;10970;48.714;9.584;2023-04-06T11:34:27;11.50;99.90
21616;DHT22;10970;48.714;9.584;2023-04-06T11:37:01;11.60;99.90
21616;DHT22;10970;48.714;9.584;2023-04-06T11:39:28;11.80;99.90
21616;DHT22;10970;48.714;9.584;2023-04-06T11:42:00;11.80;99.90
21616;DHT22;10970;48.714;9.584;2023-04-06T11:44:40;11.80;99.90
21616;DHT22;10970;48.714;9.584;2023-04-06T11:47:07;11.80;99.90
21616;DHT22;10970;48.714;9.584;2023-04-06T11:49:36;11.90;99.90
21616;DHT22;10970;48.714;9.584;2023-04-06T11:52:02;11.80;99.90
21616;DHT22;10970;48.714;9.584;2023-04-06T11:56:56;11.70;99.90
21616;DHT22;10970;48.714;9.584;2023-04-06T11:59:22;11.70;99.90
21616;DHT22;10970;48.714;9.584;2023-04-06T12:01:48;11.90;99.90
21616;DHT22;10970;48.714;9.584;2023-04-06T12:04:14;11.90;99.90
21616;DHT22;10970;48.714;9.584;2023-04-06T12:06:40;11.70;99.90
21616;DHT22;10970;48.714;9.584;2023-04-06T12:09:06;11.80;99.90
21616;DHT22;10970;48.714;9.584;2023-04-06T12:11:32;11.80;99.90
21616;DHT22;10970;48.714;9.584;2023-04-06T12:13:57;11.80;99.90
21616;DHT22;10970;48.714;9.584;2023-04-06T12:16:24;11.90;99.90
21616;DHT22;10970;48.714;9.584;2023-04-06T12:18:51;12.10;99.90
21616;DHT22;10970;48.714;9.584;2023-04-06T12:21:17;12.20;99.90
21616;DHT22;10970;48.714;9.584;2023-04-06T12:23:42;12.10;99.90
21616;DHT22;10970;48.714;9.584;2023-04-06T12:26:08;12.10;99.90
21616;DHT22;10970;48.714;9.584;2023-04-06T12:28:34;11.90;99.90
21616;DHT22;10970;48.714;9.584;2023-04-06T12:31:00;12.00;99.90
21616;DHT22;10970;48.714;9.584;2023-04-06T12:33:25;12.00;99.90
21616;DHT22;10970;48.714;9.584;2023-04-06T12:35:51;12.20;99.90
21616;DHT22;10970;48.714;9.584;2023-04-06T12:38:17;12.30;99.90
21616;DHT22;10970;48.714;9.584;2023-04-06T12:40:43;12.20;99.90
21616;DHT22;10970;48.714;9.584;2023-04-06T12:43:08;12.40;99.90
21616;DHT22;10970;48.714;9.584;2023-04-06T12:45:34;12.30;99.90
21616;DHT22;10970;48.714;9.584;2023-04-06T12:48:00;12.30;99.90
21616;DHT22;10970;48.714;9.584;2023-04-06T12:50:26;12.20;99.90
21616;DHT22;10970;48.714;9.584;2023-04-06T12:52:52;12.20;99.90
21616;DHT22;10970;48.714;9.584;2023-04-06T12:55:18;12.10;99.90
21616;DHT22;10970;48.714;9.584;2023-04-06T12:57:44;11.90;99.90
21616;DHT22;10970;48.714;9.584;2023-04-06T13:00:11;12.00;99.90
21616;DHT22;10970;48.714;9.584;2023-04-06T13:02:37;11.80;99.90
21616;DHT22;10970;48.714;9.584;2023-04-06T13:05:02;11.90;99.90
21616;DHT22;10970;48.714;9.584;2023-04-06T13:07:28;12.00;99.90
21616;DHT22;10970;48.714;9.584;2023-04-06T13:09:54;12.20;99.90
21616;DHT22;10970;48.714;9.584;2023-04-06T13:12:20;12.20;99.90
21616;DHT22;10970;48.714;9.584;2023-04-06T13:14:45;12.20;99.90
21616;DHT22;10970;48.714;9.584;2023-04-06T13:17:16;12.30;99.90
21616;DHT22;10970;48.714;9.584;2023-04-06T13:19:43;12.40;99.90
21616;DHT22;10970;48.714;9.584;2023-04-06T13:22:08;12.60;99.90
21616;DHT22;10970;48.714;9.584;2023-04-06T13:24:34;12.80;99.90
21616;DHT22;10970;48.714;9.584;2023-04-06T13:27:00;12.70;99.90
21616;DHT22;10970;48.714;9.584;2023-04-06T13:29:26;12.70;99.90
21616;DHT22;10970;48.714;9.584;2023-04-06T13:31:52;12.70;99.90
21616;DHT22;10970;48.714;9.584;2023-04-06T13:34:18;12.70;99.90
21616;DHT22;10970;48.714;9.584;2023-04-06T13:36:44;12.60;99.90
21616;DHT22;10970;48.714;9.584;2023-04-06T13:39:09;12.50;99.90
21616;DHT22;10970;48.714;9.584;2023-04-06T13:41:35;12.60;99.90
21616;DHT22;10970;48.714;9.584;2023-04-06T13:44:01;12.70;99.90
21616;DHT22;10970;48.714;9.584;2023-04-06T13:46:27;12.80;99.90
21616;DHT22;10970;48.714;9.584;2023-04-06T13:48:53;13.00;99.90
21616;DHT22;10970;48.714;9.584;2023-04-06T13:51:18;13.20;99.90
21616;DHT22;10970;48.714;9.584;2023-04-06T13:53:44;13.30;99.90
21616;DHT22;10970;48.714;9.584;2023-04-06T13:56:10;13.40;99.90
21616;DHT22;10970;48.714;9.584;2023-04-06T13:58:36;13.50;99.90
21616;DHT22;10970;48.714;9.584;2023-04-06T14:01:04;13.50;99.90
21616;DHT22;10970;48.714;9.584;2023-04-06T14:03:30;13.40;99.90
21616;DHT22;10970;48.714;9.584;2023-04-06T14:05:55;13.50;99.90
21616;DHT22;10970;48.714;9.584;2023-04-06T14:08:21;13.40;99.90
21616;DHT22;10970;48.714;9.584;2023-04-06T14:10:47;13.30;99.90
21616;DHT22;10970;48.714;9.584;2023-04-06T14:13:12;13.40;99.90
21616;DHT22;10970;48.714;9.584;2023-04-06T14:15:38;13.50;99.90
21616;DHT22;10970;48.714;9.584;2023-04-06T14:18:04;13.50;99.90
21616;DHT22;10970;48.714;9.584;2023-04-06T14:20:33;13.30;99.90
21616;DHT22;10970;48.714;9.584;2023-04-06T14:23:03;13.20;99.90
21616;DHT22;10970;48.714;9.584;2023-04-06T14:25:29;13.20;99.90
21616;DHT22;10970;48.714;9.584;2023-04-06T14:27:57;13.10;99.90
21616;DHT22;10970;48.714;9.584;2023-04-06T14:30:23;13.20;99.90
21616;DHT22;10970;48.714;9.584;2023-04-06T14:32:48;13.20;99.90
21616;DHT22;10970;48.714;9.584;2023-04-06T14:35:14;13.30;99.90
21616;DHT22;10970;48.714;9.584;2023-04-06T14:37:39;13.40;99.90
21616;DHT22;10970;48.714;9.584;2023-04-06T14:40:06;13.60;99.90
21616;DHT22;10970;48.714;9.584;2023-04-06T14:42:32;13.80;99.90
21616;DHT22;10970;48.714;9.584;2023-04-06T14:44:57;13.90;99.90
21616;DHT22;10970;48.714;9.584;2023-04-06T14:47:23;13.90;99.90
21616;DHT22;10970;48.714;9.584;2023-04-06T14:49:51;14.00;99.90
21616;DHT22;10970;48.714;9.584;2023-04-06T14:52:16;14.00;99.90
21616;DHT22;10970;48.714;9.584;2023-04-06T14:54:42;13.90;99.90
21616;DHT22;10970;48.714;9.584;2023-04-06T14:57:08;13.70;99.90
21616;DHT22;10970;48.714;9.584;2023-04-06T14:59:33;13.70;99.90
21616;DHT22;10970;48.714;9.584;2023-04-06T15:02:01;13.70;99.90
21616;DHT22;10970;48.714;9.584;2023-04-06T15:04:26;13.70;99.90
21616;DHT22;10970;48.714;9.584;2023-04-06T15:06:52;13.80;99.90
21616;DHT22;10970;48.714;9.584;2023-04-06T15:09:18;13.80;99.90
21616;DHT22;10970;48.714;9.584;2023-04-06T15:11:43;13.70;99.90
21616;DHT22;10970;48.714;9.584;2023-04-06T15:14:09;13.70;99.90
21616;DHT22;10970;48.714;9.584;2023-04-06T15:16:34;13.80;99.90
21616;DHT22;10970;48.714;9.584;2023-04-06T15:19:00;13.90;99.90
21616;DHT22;10970;48.714;9.584;2023-04-06T15:21:27;14.00;99.90
21616;DHT22;10970;48.714;9.584;2023-04-06T15:23:53;14.10;99.90
21616;DHT22;10970;48.714;9.584;2023-04-06T15:26:19;14.00;99.90
21616;DHT22;10970;48.714;9.584;2023-04-06T15:28:45;14.00;99.90
21616;DHT22;10970;48.714;9.584;2023-04-06T15:31:16;14.10;99.90
21616;DHT22;10970;48.714;9.584;2023-04-06T15:33:41;13.90;99.90
21616;DHT22;10970;48.714;9.584;2023-04-06T15:36:26;13.80;99.90
21616;DHT22;10970;48.714;9.584;2023-04-06T15:38:55;13.80;99.90
21616;DHT22;10970;48.714;9.584;2023-04-06T15:41:21;13.70;99.90
21616;DHT22;10970;48.714;9.584;2023-04-06T15:43:48;13.60;99.90